Airfield :
LOGIN :

Register | Disclaimer

   EN    FR    IT 

 










Legend :    VFR   Marginal VFR   IFR   Intensive IFR   Very Intensive IFR
Visi :
Ceiling :
>= 8 km
>= 3000ft
5 to 8 km
1000 to 3000 ft
1500m to 5 km
500 to 1000 ft
800 to 1500m
200 to 500 ft
< 800m
< 200 ft
Symbols :   Thunderstorms  Fog  Heavy snow  Heavy precipitations  Wind > 20 kt
SIGMETs :     Misc.  Thunderstorms  Icing  Turbulence  Mountain Waves  Volcanic Ashes






- Airport Elevation : 245 ft
- IATA code : BIQ


LFBZ - Biarritz

CURRENT METAR :
  • 120500Z AUTO 24005KT 180V290 8000 -RA FEW006/// BKN012/// OVC023/// ///CB 10/09 Q1016 BECMG 4000 -RA BKN012 OVC030

EXPIRED METARs :
  • 120430Z AUTO 23008KT 160V290 7000 -RA FEW008/// BKN012/// BKN021/// ///CB 09/09 Q1016 BECMG 4000 -RA BKN012 OVC030
  • 120400Z AUTO 25010KT 210V280 5000 RA BR BKN008/// BKN012/// BKN024/// ///CB 10/09 Q1017 BECMG NSW BKN012 OVC030
  • 120330Z AUTO 24008KT 210V270 8000 -RA FEW014/// BKN043/// BKN050/// ///CB 09/09 Q1017 BECMG 4000 -RA BKN012 OVC030
  • 120300Z AUTO 26017G30KT 230V290 5000 -RA BR BKN007/// BKN014/// BKN029/// ///CB 09/08 Q1017 BECMG 24012KT BKN012 OVC030
  • 120230Z AUTO 25007G17KT 190V300 4800 RA BR BKN006/// BKN012/// OVC019/// ///CB 10/10 Q1018 BECMG NSW BKN012 OVC030

TAF TAF LFBZ
Valid from the 12 at 00:00 until the 13 at 00:00 UTC


112300Z 1200/1224 27015G25KT 9999 BKN040
TEMPO 1200/1203 27020G35KT 4000 SHRA BKN014 FEW018CB BKN020TCU
BECMG 1203/1205 24012KT 4000 -RA BKN012 OVC030
TEMPO 1214/1224 24018G30KT 2000 RA BKN005 OVC015



MET'MAP, your aeronautical weather chart ! - Copyright ORBIFLY December 2007 - Disclaimer

ORBIFLY MET'MAP TEAM :

Programming & Development : Alexandra Zaïnal
Concept & original design : Baudouin d'Aumeries
Assistance for programming : Marc-Olivier Méhu
Technical & hardware support : Manuel Goepfert

Contact : metmap@orbifly.com




SOURCES & CREDITS :

   NOAA